Time;durP1;ratioP1;P1;durP2;ratioP2;P2;SDS_P1;SDS_P2;PMS_P1;PMS_P2;Temp;Humidity;BMP_temperature;BMP_pressure;BME280_temperature;BME280_humidity;BME280_pressure;Samples;Min_cycle;Max_cycle;Signal;HPM_P1;HPM_P2
2023/07/10 00:01:03;;;;;;;3.30;1.80;;;;;;;16.48;100.00;100021.19;105750;1257;60364;-44
2023/07/10 00:03:32;;;;;;;3.30;1.90;;;;;;;16.43;100.00;100026.34;105767;1254;73888;-44
2023/07/10 00:06:00;;;;;;;7.10;1.70;;;;;;;16.37;100.00;100033.92;105720;1259;64076;-44
2023/07/10 00:08:28;;;;;;;6.20;1.60;;;;;;;16.34;100.00;100045.90;105700;1254;71394;-43
2023/07/10 00:10:56;;;;;;;4.00;1.60;;;;;;;16.32;100.00;100049.66;105648;1254;61630;-44
2023/07/10 00:13:23;;;;;;;1.90;1.40;;;;;;;16.29;100.00;100051.02;105700;1254;60483;-43
2023/07/10 00:15:52;;;;;;;17.30;1.80;;;;;;;16.28;100.00;100058.06;105688;1254;72612;-44
2023/07/10 00:18:21;;;;;;;3.40;1.60;;;;;;;16.25;100.00;100072.27;105700;1254;65143;-43
2023/07/10 00:20:50;;;;;;;3.40;1.70;;;;;;;16.23;100.00;100080.71;105683;1254;71447;-44
2023/07/10 00:23:18;;;;;;;2.20;2.00;;;;;;;16.22;100.00;100079.73;105749;1254;60562;-43
2023/07/10 00:25:46;;;;;;;3.60;1.40;;;;;;;16.19;100.00;100076.91;105698;1254;60361;-44
2023/07/10 00:28:18;;;;;;;6.90;1.40;;;;;;;16.16;100.00;100082.98;105664;1254;73850;-43
2023/07/10 00:30:47;;;;;;;3.70;1.30;;;;;;;16.12;100.00;100088.92;105684;1254;65119;-43
2023/07/10 00:33:19;;;;;;;2.80;1.70;;;;;;;16.08;100.00;100095.17;105713;1258;71471;-45
2023/07/10 00:35:46;;;;;;;6.90;1.60;;;;;;;16.05;100.00;100100.55;105709;1259;60481;-44
2023/07/10 00:38:22;;;;;;;7.60;1.70;;;;;;;16.01;100.00;100105.95;105708;1259;61066;-44
2023/07/10 00:40:50;;;;;;;7.70;1.90;;;;;;;15.95;100.00;100126.77;105770;1257;72579;-42
2023/07/10 00:43:45;;;;;;;3.10;1.40;;;;;;;15.91;100.00;100137.75;105655;1254;63946;-44
2023/07/10 00:46:51;;;;;;;3.50;1.70;;;;;;;15.89;100.00;100161.84;105691;1254;72634;-45
2023/07/10 00:49:25;;;;;;;7.40;1.80;;;;;;;15.86;100.00;100175.48;105711;1254;60965;-44
2023/07/10 00:52:21;;;;;;;3.50;1.70;;;;;;;15.86;100.00;100185.79;105774;1254;60409;-42
2023/07/10 00:54:51;;;;;;;7.90;1.70;;;;;;;15.85;100.00;100207.05;105729;1254;73847;-44
2023/07/10 00:57:24;;;;;;;2.50;1.50;;;;;;;15.83;100.00;100220.70;105703;1258;63953;-44
2023/07/10 00:59:52;;;;;;;7.60;1.50;;;;;;;15.79;100.00;100237.36;105739;1254;72684;-45
2023/07/10 01:02:21;;;;;;;8.10;2.10;;;;;;;15.75;100.00;100247.66;105658;1254;60559;-44
2023/07/10 01:05:00;;;;;;;4.20;1.80;;;;;;;15.68;100.00;100271.26;105713;1259;60427;-43
2023/07/10 01:07:29;;;;;;;6.40;2.10;;;;;;;15.58;100.00;100289.60;105798;1253;73803;-44
2023/07/10 01:10:00;;;;;;;6.50;2.10;;;;;;;15.49;100.00;100321.77;105680;1254;64243;-44
2023/07/10 01:12:28;;;;;;;6.20;2.20;;;;;;;15.40;100.00;100354.14;105721;1254;72398;-44
2023/07/10 01:14:56;;;;;;;2.20;2.00;;;;;;;15.32;100.00;100372.38;105695;1253;61578;-44
2023/07/10 01:17:24;;;;;;;7.10;2.00;;;;;;;15.23;100.00;100402.08;105661;1254;60554;-43
2023/07/10 01:19:58;;;;;;;3.50;2.10;;;;;;;15.17;100.00;100432.20;105668;1254;73919;-43
2023/07/10 01:22:27;;;;;;;3.80;2.00;;;;;;;15.09;100.00;100464.13;105713;1254;65152;-43
2023/07/10 01:24:55;;;;;;;5.20;2.10;;;;;;;15.02;100.00;100486.10;105686;1254;71462;-45
2023/07/10 01:27:23;;;;;;;9.50;2.50;;;;;;;14.96;100.00;100505.60;105692;1258;60565;-44
2023/07/10 01:30:02;;;;;;;4.50;1.90;;;;;;;14.92;100.00;100521.06;105666;1255;60371;-44
2023/07/10 01:32:30;;;;;;;5.10;2.00;;;;;;;14.90;100.00;100543.00;105669;1258;73840;-44
2023/07/10 01:34:59;;;;;;;5.90;1.90;;;;;;;14.91;100.00;100559.81;105688;1259;65153;-43
2023/07/10 01:37:27;;;;;;;5.90;2.30;;;;;;;14.92;100.00;100568.31;105726;1254;72576;-43
2023/07/10 01:39:54;;;;;;;3.50;1.70;;;;;;;14.90;100.00;100575.50;105677;1254;60540;-41
2023/07/10 01:42:23;;;;;;;7.80;2.00;;;;;;;14.84;100.00;100582.99;105725;1254;60362;-41
2023/07/10 01:44:51;;;;;;;9.00;2.10;;;;;;;14.76;100.00;100594.89;105637;1254;71935;-43
2023/07/10 01:47:19;;;;;;;9.70;2.20;;;;;;;14.68;100.00;100610.45;105658;1260;63945;-44
2023/07/10 01:49:56;;;;;;;7.50;1.90;;;;;;;14.63;100.00;100632.98;105662;1254;71146;-42
2023/07/10 01:52:24;;;;;;;6.00;2.10;;;;;;;14.62;100.00;100649.14;105706;1253;61251;-42
2023/07/10 01:54:52;;;;;;;3.90;2.00;;;;;;;14.63;100.00;100656.77;105749;1258;60363;-43
2023/07/10 01:57:24;;;;;;;3.90;2.00;;;;;;;14.61;100.00;100661.35;105620;1254;72619;-42
2023/07/10 01:59:52;;;;;;;7.20;2.00;;;;;;;14.59;100.00;100666.80;105742;1254;65177;-44
2023/07/10 02:02:20;;;;;;;8.10;1.80;;;;;;;14.58;100.00;100661.63;105661;1257;71395;-43
2023/07/10 02:04:48;;;;;;;3.80;1.90;;;;;;;14.55;100.00;100666.58;105635;1254;60555;-42
2023/07/10 02:07:15;;;;;;;3.50;1.80;;;;;;;14.55;100.00;100673.55;105651;1260;60277;-43
2023/07/10 02:09:43;;;;;;;6.90;2.60;;;;;;;14.58;100.00;100683.34;105668;1254;73553;-42
2023/07/10 02:12:11;;;;;;;3.40;2.00;;;;;;;14.59;100.00;100682.77;105681;1259;65310;-44
2023/07/10 02:14:40;;;;;;;6.00;2.20;;;;;;;14.58;100.00;100687.68;105716;1259;71547;-43
2023/07/10 02:17:07;;;;;;;5.40;2.10;;;;;;;14.55;100.00;100694.88;105801;1254;60553;-43
2023/07/10 02:19:35;;;;;;;11.10;1.90;;;;;;;14.51;100.00;100699.85;105668;1254;60532;-42
2023/07/10 02:22:03;;;;;;;9.00;1.90;;;;;;;14.48;100.00;100713.48;105658;1254;72553;-43
2023/07/10 02:24:31;;;;;;;3.60;1.60;;;;;;;14.48;100.00;100722.70;105742;1259;63799;-43
2023/07/10 02:26:59;;;;;;;5.00;1.90;;;;;;;14.45;100.00;100726.44;105683;1254;71801;-44
2023/07/10 02:29:28;;;;;;;4.40;2.00;;;;;;;14.42;100.00;100736.10;105695;1254;60543;-43
2023/07/10 02:31:56;;;;;;;2.20;1.70;;;;;;;14.39;100.00;100742.77;105683;1259;60367;-43
2023/07/10 02:34:24;;;;;;;2.70;1.90;;;;;;;14.37;100.00;100748.02;105542;1254;72571;-44
2023/07/10 02:36:52;;;;;;;6.80;2.10;;;;;;;14.37;100.00;100756.71;105656;1258;65245;-43
2023/07/10 02:39:19;;;;;;;4.60;1.80;;;;;;;14.38;100.00;100763.11;105675;1254;72964;-42
2023/07/10 02:41:47;;;;;;;10.70;2.10;;;;;;;14.41;100.00;100761.82;105633;1254;60459;-43
2023/07/10 02:44:15;;;;;;;2.50;1.70;;;;;;;14.42;100.00;100759.35;105648;1259;60358;-42
2023/07/10 02:46:44;;;;;;;3.40;1.70;;;;;;;14.46;100.00;100766.18;105664;1259;71937;-44
2023/07/10 02:49:12;;;;;;;5.10;1.90;;;;;;;14.48;100.00;100763.51;105672;1254;65345;-43
2023/07/10 02:51:39;;;;;;;3.70;1.90;;;;;;;14.51;100.00;100765.14;105696;1254;72615;-43
2023/07/10 02:54:11;;;;;;;3.50;2.00;;;;;;;14.56;100.00;100762.77;105669;1259;60498;-44
2023/07/10 02:56:39;;;;;;;3.30;1.60;;;;;;;14.60;100.00;100762.13;105694;1255;60402;-45
2023/07/10 02:59:07;;;;;;;7.00;2.20;;;;;;;14.62;100.00;100758.73;105662;1259;72850;-44
2023/07/10 03:01:35;;;;;;;5.50;2.00;;;;;;;14.64;100.00;100759.73;105657;1254;63939;-44
2023/07/10 03:04:03;;;;;;;3.80;1.70;;;;;;;14.66;100.00;100765.58;105744;1254;71716;-43
2023/07/10 03:06:31;;;;;;;3.40;2.10;;;;;;;14.68;100.00;100762.22;105715;1259;60550;-44
2023/07/10 03:08:59;;;;;;;2.20;2.00;;;;;;;14.71;100.00;100767.70;105745;1254;60450;-44
2023/07/10 03:11:28;;;;;;;3.90;2.00;;;;;;;14.74;100.00;100765.70;105659;1254;72594;-43
2023/07/10 03:13:55;;;;;;;5.10;2.20;;;;;;;14.76;100.00;100762.70;105673;1254;65220;-44
2023/07/10 03:16:24;;;;;;;3.30;1.70;;;;;;;14.77;100.00;100771.01;105667;1254;72697;-44
2023/07/10 03:18:51;;;;;;;2.40;1.70;;;;;;;14.80;100.00;100770.91;105719;1258;60555;-43
2023/07/10 03:21:19;;;;;;;5.30;2.30;;;;;;;14.84;100.00;100779.15;105685;1259;60400;-42
2023/07/10 03:23:48;;;;;;;3.60;2.20;;;;;;;14.86;100.00;100776.80;105684;1254;72699;-44
2023/07/10 03:26:15;;;;;;;5.80;2.20;;;;;;;14.90;100.00;100775.48;105711;1254;65149;-43
2023/07/10 03:28:43;;;;;;;3.70;2.10;;;;;;;14.95;100.00;100774.11;105661;1259;71397;-44
2023/07/10 03:31:10;;;;;;;3.40;1.80;;;;;;;15.02;100.00;100770.23;105737;1254;61656;-43
2023/07/10 03:33:39;;;;;;;8.30;2.00;;;;;;;15.11;100.00;100772.90;105682;1254;60630;-44
2023/07/10 03:36:07;;;;;;;2.40;2.00;;;;;;;15.22;100.00;100770.63;105772;1258;72999;-44
2023/07/10 03:38:35;;;;;;;2.20;1.90;;;;;;;15.34;100.00;100766.59;105704;1254;64088;-43
2023/07/10 03:41:03;;;;;;;3.10;2.20;;;;;;;15.48;100.00;100754.31;105665;1254;72632;-44
2023/07/10 03:43:31;;;;;;;5.00;2.00;;;;;;;15.62;100.00;100744.27;105707;1254;60751;-45
2023/07/10 03:45:59;;;;;;;2.50;2.10;;;;;;;15.77;100.00;100725.64;105683;1260;60535;-45
2023/07/10 03:48:27;;;;;;;3.50;1.80;;;;;;;15.95;100.00;100699.95;105685;1254;72568;-44
2023/07/10 03:50:54;;;;;;;7.70;2.10;;;;;;;16.17;100.00;100658.58;105642;1254;63375;-43
2023/07/10 03:53:22;;;;;;;2.80;1.80;;;;;;;16.45;100.00;100624.92;105696;1259;70403;-44
2023/07/10 03:55:52;;;;;;;2.70;1.80;;;;;;;16.73;100.00;100576.40;105706;1254;60456;-44
2023/07/10 04:31:09;;;;;;;7.80;2.30;;;;;;;19.17;100.00;99986.02;102857;1294;600522;-43
2023/07/10 04:33:37;;;;;;;14.00;1.80;;;;;;;19.25;100.00;100018.59;105116;1267;59453;-44
2023/07/10 04:36:05;;;;;;;6.30;1.80;;;;;;;19.40;100.00;100018.37;105044;1269;59299;-43
2023/07/10 04:38:33;;;;;;;5.60;1.90;;;;;;;19.57;100.00;100027.98;104916;1263;72181;-43
2023/07/10 04:41:03;;;;;;;3.60;1.80;;;;;;;19.67;100.00;100041.73;104868;1265;63923;-42
2023/07/10 04:43:32;;;;;;;12.70;2.90;;;;;;;19.84;100.00;100039.06;104933;1269;72692;-43
2023/07/10 04:46:02;;;;;;;4.30;1.80;;;;;;;20.03;100.00;100045.23;105076;1267;247351;-44
2023/07/10 04:48:30;;;;;;;3.40;1.60;;;;;;;20.22;100.00;100067.47;105278;1265;60005;-43
2023/07/10 04:51:03;;;;;;;7.30;1.80;;;;;;;20.34;100.00;100081.96;105218;1269;70008;-43
2023/07/10 04:53:31;;;;;;;2.60;1.90;;;;;;;20.51;100.00;100100.14;105238;1266;65155;-43
2023/07/10 04:56:01;;;;;;;9.30;2.10;;;;;;;20.63;100.00;100122.83;105235;1266;72635;-45
2023/07/10 04:58:30;;;;;;;4.10;2.20;;;;;;;20.79;100.00;100141.94;105234;1267;60021;-45
2023/07/10 05:00:59;;;;;;;2.40;2.10;;;;;;;20.95;100.00;100157.91;105132;1268;59795;-43
2023/07/10 05:03:26;;;;;;;4.00;1.80;;;;;;;21.12;100.00;100164.34;105207;1267;73009;-45
2023/07/10 05:05:58;;;;;;;1.80;1.70;;;;;;;21.31;100.00;100175.34;105184;1268;63944;-45
2023/07/10 05:08:26;;;;;;;2.90;1.70;;;;;;;21.38;100.00;100211.02;105179;1263;70410;-45
2023/07/10 05:10:54;;;;;;;5.30;1.60;;;;;;;21.41;100.00;100230.34;105206;1266;60002;-45
2023/07/10 05:13:24;;;;;;;2.90;1.90;;;;;;;21.34;100.00;100250.45;105191;1267;60024;-44
2023/07/10 05:15:54;;;;;;;1.90;1.70;;;;;;;21.45;100.00;100239.34;105121;1269;70902;-45
2023/07/10 05:18:22;;;;;;;5.70;2.20;;;;;;;21.47;100.00;100253.04;105203;1269;63936;-43
2023/07/10 05:20:49;;;;;;;3.20;1.60;;;;;;;21.68;100.00;100245.17;105224;1265;71358;-44
2023/07/10 05:23:17;;;;;;;4.00;1.80;;;;;;;22.02;100.00;100236.52;105241;1261;59801;-45
2023/07/10 05:25:56;;;;;;;2.20;1.70;;;;;;;22.36;100.00;100238.52;105207;1266;59548;-44
2023/07/10 05:28:24;;;;;;;3.20;2.00;;;;;;;22.51;100.00;100268.46;105294;1266;73000;-44
2023/07/10 05:30:52;;;;;;;2.10;1.90;;;;;;;22.36;100.00;100308.36;105266;1261;64523;-44
2023/07/10 05:33:20;;;;;;;5.90;2.30;;;;;;;22.31;100.00;100309.39;105280;1267;72636;-43
2023/07/10 05:35:49;;;;;;;5.10;2.20;;;;;;;22.25;100.00;100312.61;105216;1267;59764;-43
2023/07/10 05:38:17;;;;;;;7.60;2.30;;;;;;;22.25;100.00;100305.92;105265;1265;59715;-43
2023/07/10 05:40:44;;;;;;;6.70;2.40;;;;;;;22.35;100.00;100299.27;105214;1266;73081;-42
2023/07/10 05:43:12;;;;;;;6.60;2.30;;;;;;;22.39;100.00;100303.71;105247;1262;64061;-44
2023/07/10 05:45:40;;;;;;;4.80;2.10;;;;;;;22.40;100.00;100318.05;105225;1266;72687;-44
2023/07/10 05:48:08;;;;;;;6.20;2.60;;;;;;;22.37;100.00;100318.11;105201;1266;59869;-46
2023/07/10 05:50:36;;;;;;;4.30;2.10;;;;;;;22.41;100.00;100318.85;105270;1265;59634;-44
2023/07/10 05:53:04;;;;;;;2.20;2.10;;;;;;;22.55;100.00;100312.48;105309;1260;71845;-44
2023/07/10 05:55:32;;;;;;;1.70;1.60;;;;;;;22.66;100.00;100321.73;105249;1265;63253;-44
2023/07/10 05:58:00;;;;;;;6.30;2.10;;;;;;;22.71;100.00;100317.86;105242;1266;71709;-44
2023/07/10 06:00:27;;;;;;;3.20;2.30;;;;;;;22.82;100.00;100328.35;105229;1266;59644;-44
2023/07/10 06:02:55;;;;;;;8.30;2.80;;;;;;;22.99;100.00;100312.69;105290;1266;59655;-42
2023/07/10 06:05:22;;;;;;;5.60;2.50;;;;;;;23.11;100.00;100325.88;105231;1266;72933;-44
2023/07/10 06:07:50;;;;;;;2.20;2.00;;;;;;;23.31;100.00;100322.18;105244;1261;64043;-44
2023/07/10 06:10:17;;;;;;;3.00;2.30;;;;;;;23.38;95.33;100295.27;105300;1263;71966;-43
2023/07/10 06:12:45;;;;;;;7.30;1.80;;;;;;;23.33;99.66;100332.75;105236;1266;59746;-44
2023/07/10 06:15:12;;;;;;;7.10;1.80;;;;;;;23.58;99.09;100317.14;105269;1263;60110;-43
2023/07/10 06:17:43;;;;;;;2.30;1.60;;;;;;;23.82;94.38;100315.66;105668;1254;71745;-44
2023/07/10 06:20:11;;;;;;;1.80;1.60;;;;;;;23.82;81.62;100287.14;105712;1255;63989;-44
2023/07/10 06:22:39;;;;;;;6.40;1.70;;;;;;;23.73;75.93;100274.85;105695;1264;72682;-45
2023/07/10 06:25:07;;;;;;;2.50;1.70;;;;;;;23.56;77.82;100320.88;105661;1258;59723;-44
2023/07/10 06:27:34;;;;;;;7.40;2.70;;;;;;;23.45;80.34;100343.85;105696;1260;59640;-44
2023/07/10 06:30:03;;;;;;;4.40;3.10;;;;;;;23.42;87.60;100353.61;105632;1260;74996;-44
2023/07/10 06:32:31;;;;;;;3.80;3.50;;;;;;;23.44;93.12;100352.53;105695;1264;63993;-43
2023/07/10 06:34:59;;;;;;;7.00;4.20;;;;;;;23.46;97.04;100346.25;105675;1256;71421;-42
2023/07/10 06:37:27;;;;;;;4.10;3.80;;;;;;;23.48;98.02;100343.97;105670;1260;59781;-43
2023/07/10 06:40:09;;;;;;;3.10;2.80;;;;;;;23.51;94.06;100318.54;105706;1260;59659;-44
2023/07/10 06:42:37;;;;;;;3.40;3.10;;;;;;;23.46;86.80;100315.27;105710;1259;72067;-45
2023/07/10 06:45:06;;;;;;;2.60;2.00;;;;;;;23.42;88.01;100329.46;105681;1260;65352;-43
2023/07/10 06:47:39;;;;;;;2.70;2.10;;;;;;;23.56;84.50;100306.90;105677;1260;72598;-44
2023/07/10 06:50:08;;;;;;;5.50;3.00;;;;;;;23.71;80.89;100295.94;105709;1260;59737;-45
2023/07/10 06:52:38;;;;;;;2.30;2.20;;;;;;;23.76;79.76;100309.86;105698;1253;59555;-44
2023/07/10 06:55:07;;;;;;;3.80;2.50;;;;;;;23.64;75.63;100277.48;105677;1260;73026;-44
2023/07/10 06:57:34;;;;;;;4.10;2.30;;;;;;;23.36;73.74;100268.99;105705;1259;63924;-44
2023/07/10 07:00:08;;;;;;;6.80;2.90;;;;;;;23.14;74.33;100295.22;105703;1261;71480;-43
2023/07/10 07:02:35;;;;;;;7.90;3.80;;;;;;;23.07;76.14;100315.98;105684;1258;59710;-43
2023/07/10 07:05:05;;;;;;;11.90;2.80;;;;;;;22.98;75.37;100305.16;105671;1255;59647;-44
2023/07/10 07:07:34;;;;;;;5.70;2.40;;;;;;;22.76;79.82;100335.93;105689;1254;73034;-44
2023/07/10 07:10:02;;;;;;;3.80;2.90;;;;;;;22.70;87.02;100335.33;105647;1260;65226;-45
2023/07/10 07:12:29;;;;;;;5.70;2.50;;;;;;;22.75;95.29;100334.67;105671;1261;71666;-43
2023/07/10 07:14:57;;;;;;;5.40;2.40;;;;;;;22.91;82.55;100291.95;105652;1257;59666;-45
2023/07/10 07:17:24;;;;;;;4.50;2.60;;;;;;;23.13;78.65;100278.20;105645;1254;59615;-45
2023/07/10 07:19:52;;;;;;;3.30;2.80;;;;;;;23.30;81.37;100305.67;105710;1254;71719;-44
2023/07/10 07:22:20;;;;;;;9.90;2.70;;;;;;;23.24;81.86;100305.03;105712;1254;65262;-45
2023/07/10 07:24:47;;;;;;;5.90;2.70;;;;;;;23.15;85.88;100320.88;105657;1257;71426;-45
2023/07/10 07:27:15;;;;;;;3.10;2.80;;;;;;;23.17;91.19;100324.40;105660;1258;60033;-46
2023/07/10 07:29:44;;;;;;;2.90;2.70;;;;;;;23.38;86.59;100291.04;105716;1260;59733;-45
2023/07/10 07:32:12;;;;;;;4.40;3.00;;;;;;;23.40;78.20;100273.64;105686;1260;73006;-45
2023/07/10 07:34:40;;;;;;;3.60;2.90;;;;;;;23.33;81.31;100303.52;105696;1254;64027;-45
2023/07/10 07:37:07;;;;;;;3.00;2.80;;;;;;;23.27;78.69;100289.36;105635;1260;71412;-46
2023/07/10 07:39:35;;;;;;;6.50;3.20;;;;;;;23.15;78.29;100296.20;105650;1254;60033;-48
2023/07/10 07:42:03;;;;;;;3.00;2.80;;;;;;;22.97;76.70;100294.85;105702;1260;60124;-45
2023/07/10 07:44:31;;;;;;;3.50;3.20;;;;;;;22.80;80.44;100315.83;105656;1260;71837;-44
2023/07/10 07:46:58;;;;;;;3.90;2.60;;;;;;;22.81;83.24;100320.29;105684;1254;65412;-44
2023/07/10 07:49:26;;;;;;;4.80;2.60;;;;;;;22.90;86.54;100319.31;105705;1259;71379;-45
2023/07/10 07:51:54;;;;;;;2.50;2.00;;;;;;;22.98;84.17;100306.23;105678;1267;59731;-46
2023/07/10 07:54:21;;;;;;;3.20;1.90;;;;;;;23.05;85.22;100309.09;105665;1254;60413;-43
2023/07/10 07:56:49;;;;;;;4.50;1.90;;;;;;;23.16;83.47;100300.05;105411;1260;72997;-45
2023/07/10 07:59:18;;;;;;;3.20;1.60;;;;;;;23.34;85.02;100294.83;105659;1260;64013;-45
2023/07/10 08:01:45;;;;;;;1.80;1.50;;;;;;;23.55;79.15;100268.80;105661;1254;72395;-46
2023/07/10 08:04:13;;;;;;;2.20;1.80;;;;;;;23.67;74.98;100249.37;105734;1258;59759;-42
2023/07/10 08:06:41;;;;;;;3.60;1.80;;;;;;;23.67;72.62;100240.08;105690;1259;59628;-43
2023/07/10 08:09:11;;;;;;;10.40;2.00;;;;;;;23.55;72.62;100248.54;105706;1254;72974;-43
2023/07/10 08:11:38;;;;;;;2.00;1.80;;;;;;;23.54;75.63;100286.46;105642;1260;65121;-49
2023/07/10 08:14:06;;;;;;;3.30;2.50;;;;;;;23.61;72.57;100244.38;105648;1261;72614;-46
2023/07/10 08:16:34;;;;;;;7.00;2.10;;;;;;;23.57;70.10;100232.35;105732;1257;60136;-44
2023/07/10 08:19:02;;;;;;;2.10;1.80;;;;;;;23.65;69.52;100234.96;105708;1265;59625;-44
2023/07/10 08:21:29;;;;;;;1.70;1.60;;;;;;;23.83;69.32;100240.95;105660;1255;71770;-43
2023/07/10 08:23:57;;;;;;;1.70;1.60;;;;;;;23.97;64.56;100151.41;105653;1254;65969;-43
2023/07/10 08:26:25;;;;;;;2.00;1.60;;;;;;;24.00;63.89;100165.08;105652;1260;71403;-43
2023/07/10 08:28:52;;;;;;;2.00;1.60;;;;;;;24.19;63.24;100165.02;105652;1257;59672;-44
2023/07/10 08:31:20;;;;;;;7.70;1.80;;;;;;;24.25;62.05;100146.23;105656;1260;59635;-45
2023/07/10 08:33:48;;;;;;;2.90;1.60;;;;;;;24.29;62.38;100168.64;105649;1260;73021;-47
2023/07/10 08:36:15;;;;;;;4.80;2.50;;;;;;;24.27;60.72;100118.24;105658;1260;64515;-45
2023/07/10 08:38:44;;;;;;;3.00;1.90;;;;;;;24.17;61.51;100170.49;105671;1254;71750;-46
2023/07/10 08:41:18;;;;;;;6.30;1.50;;;;;;;24.10;62.04;100191.66;105685;1257;60456;-44
2023/07/10 08:43:46;;;;;;;2.00;1.90;;;;;;;24.09;63.18;100229.93;105708;1259;60352;-48
2023/07/10 08:46:21;;;;;;;2.10;1.90;;;;;;;24.11;64.32;100255.39;105659;1259;73842;-46
2023/07/10 08:48:49;;;;;;;3.30;1.80;;;;;;;24.05;65.69;100278.89;105708;1258;64028;-47
2023/07/10 08:51:17;;;;;;;4.80;1.90;;;;;;;24.00;65.60;100270.85;105687;1257;71507;-46
2023/07/10 08:54:07;;;;;;;3.50;2.00;;;;;;;23.91;65.36;100257.10;105697;1259;60466;-47
2023/07/10 08:57:09;;;;;;;10.20;2.60;;;;;;;23.91;64.90;100247.01;105670;1260;60723;-46
2023/07/10 08:59:44;;;;;;;4.90;2.60;;;;;;;24.15;65.97;100266.13;105371;1260;73853;-45
2023/07/10 09:02:45;;;;;;;3.50;2.30;;;;;;;24.37;64.03;100214.70;105647;1254;64285;-44
2023/07/10 09:05:18;;;;;;;4.00;1.80;;;;;;;24.42;62.12;100161.45;105660;1257;71433;-45
2023/07/10 09:07:46;;;;;;;3.70;2.00;;;;;;;24.55;61.43;100151.89;105672;1258;60482;-47
2023/07/10 09:10:26;;;;;;;3.10;2.00;;;;;;;24.61;59.24;100080.00;105711;1260;60363;-46
2023/07/10 09:12:54;;;;;;;3.70;1.80;;;;;;;24.44;58.59;100091.78;105679;1260;71832;-47
2023/07/10 09:15:46;;;;;;;3.80;1.50;;;;;;;24.21;58.70;100121.02;105652;1260;65372;-46
2023/07/10 09:18:45;;;;;;;2.20;1.90;;;;;;;24.23;59.02;100134.55;105632;1254;72639;-45
2023/07/10 09:21:25;;;;;;;2.00;1.90;;;;;;;24.49;59.33;100146.94;105692;1259;60641;-47
2023/07/10 09:23:52;;;;;;;2.80;1.40;;;;;;;24.77;56.14;100001.95;105683;1254;60453;-43
2023/07/10 09:26:22;;;;;;;1.50;1.40;;;;;;;24.91;54.91;99953.49;105650;1259;73816;-43
2023/07/10 09:28:57;;;;;;;3.60;1.60;;;;;;;24.96;53.41;99871.16;105701;1255;65179;-45
2023/07/10 09:31:44;;;;;;;2.20;1.70;;;;;;;24.93;54.45;99970.39;105669;1257;71857;-45
2023/07/10 09:34:12;;;;;;;1.80;1.40;;;;;;;24.82;55.60;100059.59;105699;1257;60380;-48
2023/07/10 09:36:40;;;;;;;2.00;1.30;;;;;;;24.54;56.59;100123.63;105640;1260;60805;-44
2023/07/10 09:39:09;;;;;;;1.30;1.10;;;;;;;24.14;57.32;100176.34;105695;1254;73873;-48
2023/07/10 10:40:00;;;;;;;3.00;1.20;;;;;;;24.78;54.87;100124.47;102783;1295;600112;-45
2023/07/10 10:42:47;;;;;;;3.20;1.30;;;;;;;24.82;53.24;100006.98;105059;1264;59452;-45
2023/07/10 10:45:33;;;;;;;2.90;1.30;;;;;;;24.84;54.78;100113.72;105100;1266;59369;-47
2023/07/10 10:48:34;;;;;;;1.40;1.20;;;;;;;24.83;54.75;100115.41;105047;1264;71463;-45
2023/07/10 10:51:25;;;;;;;3.00;1.30;;;;;;;24.86;55.81;100181.17;105020;1270;65158;-44
2023/07/10 10:54:14;;;;;;;3.60;1.30;;;;;;;25.03;54.34;100070.18;104874;1264;380830;-45
2023/07/10 10:57:04;;;;;;;2.00;1.50;;;;;;;25.16;54.70;100097.33;105195;1267;59262;-46
2023/07/10 10:59:45;;;;;;;3.70;1.60;;;;;;;25.43;54.59;100076.27;105254;1267;59288;-44
2023/07/10 11:02:36;;;;;;;4.50;1.20;;;;;;;25.75;55.16;100106.38;105212;1264;70943;-44
2023/07/10 11:05:16;;;;;;;1.60;1.10;;;;;;;25.73;54.84;100091.50;105230;1266;65108;-47
2023/07/10 11:07:45;;;;;;;1.30;1.20;;;;;;;25.28;54.25;100092.52;105163;1266;71534;-45
2023/07/10 11:10:18;;;;;;;2.80;1.20;;;;;;;24.80;54.51;100115.13;105233;1264;60007;-46
2023/07/10 11:12:46;;;;;;;2.00;1.20;;;;;;;24.55;54.71;100134.95;105201;1267;59672;-47
2023/07/10 11:15:17;;;;;;;1.00;0.90;;;;;;;24.51;54.18;100105.89;105187;1266;71778;-45
2023/07/10 11:17:49;;;;;;;1.20;1.10;;;;;;;24.28;53.51;100067.77;105245;1264;64292;-45
2023/07/10 11:20:16;;;;;;;1.10;1.10;;;;;;;23.91;55.21;100173.38;105209;1263;73087;-43
2023/07/10 11:22:50;;;;;;;2.00;1.10;;;;;;;23.89;56.36;100244.38;105144;1264;59654;-43
2023/07/10 11:25:57;;;;;;;2.00;1.10;;;;;;;24.18;56.65;100230.16;105203;1266;59634;-44
2023/07/10 11:28:29;;;;;;;3.60;1.10;;;;;;;24.77;56.22;100176.58;104923;1267;73013;-44
2023/07/10 11:31:20;;;;;;;2.90;1.00;;;;;;;25.30;54.58;100070.72;105219;1264;64504;-47
2023/07/10 11:34:05;;;;;;;1.00;0.80;;;;;;;25.38;52.74;99975.00;105225;1266;71360;-44
2023/07/10 11:36:33;;;;;;;0.80;0.80;;;;;;;24.95;54.10;100078.95;105065;1269;59987;-46
2023/07/10 11:39:10;;;;;;;1.50;1.30;;;;;;;24.65;53.62;100066.06;105112;1263;59917;-46
2023/07/10 11:41:45;;;;;;;2.00;1.10;;;;;;;24.56;55.00;100137.89;105143;1264;71664;-44
2023/07/10 11:44:19;;;;;;;2.90;1.10;;;;;;;24.92;54.43;100101.26;105127;1264;63991;-45
2023/07/10 11:46:57;;;;;;;2.70;1.10;;;;;;;25.32;53.81;100037.82;105127;1269;72670;-45
2023/07/10 11:49:35;;;;;;;6.40;1.20;;;;;;;25.37;53.74;100032.98;105142;1268;59800;-45
2023/07/10 11:52:11;;;;;;;4.00;1.20;;;;;;;25.23;53.09;100013.02;105142;1268;59669;-44
2023/07/10 11:54:42;;;;;;;;;;;;;;;24.95;52.95;100014.02;105124;1269;73510;-45
2023/07/10 11:57:09;;;;;;;5.40;1.00;;;;;;;24.61;53.81;100098.71;105145;1263;64026;-45
2023/07/10 11:59:49;;;;;;;1.80;1.00;;;;;;;24.60;54.12;100110.80;105107;1264;72685;-43
2023/07/10 12:02:27;;;;;;;3.60;1.10;;;;;;;24.87;54.64;100137.10;105118;1264;59814;-46
2023/07/10 12:04:58;;;;;;;3.00;1.00;;;;;;;25.15;52.32;99961.29;105114;1264;60016;-48
2023/07/10 12:07:26;;;;;;;1.90;1.20;;;;;;;25.09;52.04;99957.42;105160;1268;73003;-45
2023/07/10 12:09:58;;;;;;;2.30;1.50;;;;;;;25.10;51.97;99960.84;105136;1269;63896;-44
2023/07/10 12:12:31;;;;;;;1.70;0.90;;;;;;;25.28;52.77;100014.32;105081;1269;72630;-45
2023/07/10 12:15:02;;;;;;;1.20;1.10;;;;;;;25.51;53.49;100064.52;105121;1264;60027;-43
2023/07/10 12:17:30;;;;;;;1.20;1.10;;;;;;;25.61;53.97;100089.21;105190;1264;60505;-44
2023/07/10 12:20:02;;;;;;;4.60;1.10;;;;;;;25.57;53.97;100098.46;105161;1264;71954;-45
2023/07/10 12:22:35;;;;;;;2.80;1.30;;;;;;;25.57;53.45;100057.61;105169;1266;63935;-44
2023/07/10 12:25:09;;;;;;;3.00;1.50;;;;;;;25.68;52.40;99978.77;105134;1265;71571;-45
2023/07/10 12:27:37;;;;;;;1.20;1.20;;;;;;;25.94;52.74;100030.48;105015;1264;59908;-45
2023/07/10 12:30:15;;;;;;;2.50;1.40;;;;;;;26.25;52.77;100030.05;105116;1269;59561;-45
2023/07/10 12:32:43;;;;;;;4.80;1.20;;;;;;;26.19;52.35;99999.84;105143;1263;73008;-45
2023/07/10 12:35:13;;;;;;;2.00;0.80;;;;;;;25.64;50.41;99887.27;104844;1272;64210;-44
2023/07/10 12:37:48;;;;;;;5.70;1.10;;;;;;;24.81;51.89;100036.90;105128;1264;72630;-46
2023/07/10 12:40:16;;;;;;;3.50;1.00;;;;;;;24.49;53.63;100180.65;105161;1264;59998;-45
2023/07/10 12:42:45;;;;;;;11.50;1.30;;;;;;;24.53;54.26;100216.61;105128;1264;59970;-44
2023/07/10 12:45:30;;;;;;;1.20;1.10;;;;;;;24.62;54.53;100213.75;105107;1263;73154;-44
2023/07/10 12:48:11;;;;;;;1.70;1.30;;;;;;;24.57;55.86;100275.02;105175;1264;65349;-43
2023/07/10 12:50:46;;;;;;;1.70;1.20;;;;;;;24.41;55.97;100267.27;105160;1264;72656;-47
2023/07/10 12:53:38;;;;;;;5.80;1.20;;;;;;;24.09;56.23;100276.98;105092;1264;60122;-45
2023/07/10 12:56:26;;;;;;;9.10;1.30;;;;;;;23.56;58.33;100344.62;105118;1268;59591;-47
2023/07/10 12:59:02;;;;;;;1.30;1.30;;;;;;;23.18;62.11;100367.45;105009;1264;71854;-48
2023/07/10 13:01:32;;;;;;;1.20;1.20;;;;;;;23.00;62.20;100335.67;104870;1264;67689;-46
2023/07/10 13:04:03;;;;;;;2.80;1.00;;;;;;;22.91;59.74;100256.83;105130;1267;71345;-49